• Join FlightAware (Why Join?)
  • Login
  • US Flag 
11:22AM EDT


 

Airport Tracker/Info


-or-


 

Live Flight TrackerFlight Track Log ✈ IBE425 ✈ 2013年 04月 18日 ✈ LEBB / BIO - LEMD / MAD

Flight Track Log - Related Links

Times and Time Zones

All times are in EDT time to prevent confusion due to time zone crossing. See the IBE425 flight status page for this flight to view local times or setup timezone preferences in your user account.

Time Position Orientation Groundspeed Altitude Reporting Facility
EDT Latitude Longitude Course Direction KTS MPH feet Rate Location/Type
04:04PM 43.0190 -3.2040 214° Southwest 338 389 23,900  Level FlightAware
04:04PM 42.9590 -3.2590 214° Southwest 331 381 25,000 1,380 Climbing FlightAware
04:05PM 42.9050 -3.3090 214° Southwest 334 384 26,000 1,320 Climbing FlightAware
04:06PM 42.8430 -3.3660 214° Southwest 340 391 27,000 660 Climbing FlightAware
04:07PM 42.7970 -3.4090 214° Southwest 346 398 27,000  Level FlightAware
04:07PM 42.7260 -3.4740 214° Southwest 345 397 27,000  Level FlightAware
04:08PM 42.6690 -3.5270 214° Southwest 347 399 27,000  Level FlightAware
04:09PM 42.5800 -3.6080 214° Southwest 347 399 27,000  Level FlightAware
04:10PM 42.5080 -3.6740 214° Southwest 347 399 27,000  Level FlightAware
04:11PM 42.4510 -3.7250 213° Southwest 340 391 27,000  Level FlightAware
04:12PM 42.4000 -3.7720 214° Southwest 340 391 27,000  Level FlightAware
04:12PM 42.3360 -3.8310 214° Southwest 342 394 27,000  Level FlightAware
04:13PM 42.2950 -3.8680 214° Southwest 342 394 27,000  Level FlightAware
04:14PM 42.2280 -3.9290 214° Southwest 342 394 27,000  Level FlightAware
04:15PM 42.1660 -3.9840 213° Southwest 342 394 27,000  Level FlightAware
04:15PM 42.0920 -4.0500 214° Southwest 343 395 27,000  Level FlightAware
04:16PM 42.0150 -4.0980 205° Southwest 349 402 27,000  Level FlightAware
04:17PM 41.9600 -4.1150 193° South 355 409 27,000  Level FlightAware
04:18PM 41.8790 -4.1260 186° South 357 411 27,000  Level FlightAware
04:18PM 41.8210 -4.1320 184° South 357 411 27,000  Level FlightAware
04:19PM 41.7530 -4.1400 185° South 340 391 27,000  Level FlightAware
04:20PM 41.6810 -4.1480 185° South 334 384 27,000  Level FlightAware
04:20PM 41.6180 -4.1550 185° South 327 376 27,000 -360 Level FlightAware
04:21PM 41.5500 -4.1630 185° South 319 367 26,500 -600 Descending FlightAware
04:22PM 41.4840 -4.1700 185° South 301 346 26,100 -600 Descending FlightAware
04:23PM 41.4300 -4.1770 186° South 303 349 25,700 -720 Descending FlightAware
04:23PM 41.3750 -4.1830 185° South 301 346 25,200 -540 Descending FlightAware
04:24PM 41.3130 -4.1900 185° South 302 348 25,000 -360 Descending FlightAware
04:25PM 41.2580 -4.1960 185° South 299 344 24,700 -720 Descending FlightAware
04:25PM 41.2160 -4.1860 170° South 306 352 24,200 -960 Descending FlightAware
04:26PM 41.1620 -4.1670 165° South 301 346 23,600 -1,020 Descending FlightAware
04:27PM 41.1010 -4.1460 165° South 301 346 22,800 -1,080 Descending FlightAware
04:27PM 41.0470 -4.1280 166° South 299 344 22,100 -1,080 Descending FlightAware
04:28PM 40.9960 -4.1450 194° South 270 311 21,400 -1,020 Descending FlightAware
04:28PM 40.9860 -4.1620 232° Southwest 265 305 21,200 -840 Descending FlightAware
04:28PM 40.9790 -4.1860 249° West 263 303 21,000 -240 Descending FlightAware
04:29PM 40.9920 -4.2490 285° West 278 320 21,000  Level FlightAware
04:29PM 41.0050 -4.2650 317° Northwest 286 329 21,000  Level FlightAware
04:30PM 41.0480 -4.3050 325° Northwest 280 322 21,000 -540 Level FlightAware
04:31PM 41.0990 -4.3430 331° Northwest 293 337 20,300 -1,020 Descending FlightAware
04:31PM 41.1520 -4.3190 19° North 319 367 19,600 -1,020 Descending FlightAware
04:32PM 41.1630 -4.2980 55° Northeast 320 368 19,400 -1,020 Descending FlightAware
04:32PM 41.1690 -4.2670 76° East 316 364 19,100 -900 Descending FlightAware
04:32PM 41.1610 -4.2230 104° East 303 349 18,800 -900 Descending FlightAware
04:33PM 41.1470 -4.2010 130° Southeast 292 336 18,500 -900 Descending FlightAware
04:33PM 41.1000 -4.1580 145° Southeast 278 320 17,900 -960 Descending FlightAware
04:34PM 41.0770 -4.1470 160° South 266 306 17,500 -1,080 Descending FlightAware
04:34PM 41.0530 -4.1530 191° South 259 298 17,200 -900 Descending FlightAware
04:35PM 41.0060 -4.1690 194° South 261 300 16,600 -1,020 Descending FlightAware
04:35PM 40.9530 -4.1850 193° South 260 299 15,800 -1,020 Descending FlightAware
04:36PM 40.9060 -4.1710 167° South 278 320 15,200 -960 Descending FlightAware
04:37PM 40.8780 -4.1360 137° Southeast 289 333 14,700 -1,080 Descending FlightAware
04:37PM 40.8730 -4.1140 107° East 295 339 14,400 -1,020 Descending FlightAware
04:38PM 40.8880 -4.0380 75° East 295 339 13,800 -960 Descending FlightAware
04:38PM 40.9040 -3.9630 74° East 290 334 13,100 -1,020 Descending FlightAware
04:39PM 40.9180 -3.8950 75° East 290 334 12,400 -1,020 Descending FlightAware
04:40PM 40.9320 -3.8260 75° East 285 328 11,800 -900 Descending FlightAware
04:40PM 40.9400 -3.7600 81° East 282 325 11,200 -660 Descending FlightAware
04:41PM 40.9480 -3.6860 82° East 275 316 10,900 -420 Descending FlightAware
04:42PM 40.9360 -3.6370 108° East 261 300 10,700 -1,140 Descending FlightAware
04:42PM 40.9020 -3.5970 138° Southeast 256 295 9,600 -1,680 Descending FlightAware
04:42PM 40.8880 -3.5830 143° Southeast 247 284 9,200 -1,800 Descending FlightAware
04:43PM 40.8690 -3.5780 169° South 246 283 8,700 -1,980 Descending FlightAware
04:43PM 40.8420 -3.5770 178° South 246 283 7,900 -1,560 Descending FlightAware
04:44PM 40.8090 -3.5770 180° South 227 261 7,300 -1,200 Descending FlightAware
04:44PM 40.7700 -3.5760 179° South 216 249 6,500 -1,140 Descending FlightAware
04:45PM 40.7390 -3.5760 180° South 210 242 6,000 -1,140 Descending FlightAware
04:45PM 40.7010 -3.5760 180° South 208 239 5,200 -1,200 Descending FlightAware
04:46PM 40.6920 -3.5760 180° South 208 239 5,000 -1,140 Descending FlightAware
04:46PM 40.6480 -3.5760 180° South 207 238 4,200 -1,020 Descending FlightAware
04:47PM 40.6060 -3.5750 179° South 188 216 3,500 -960 Descending FlightAware
04:48PM 40.5870 -3.5750 180° South 174 200 3,100 -900 Descending FlightAware
04:48PM 40.5640 -3.5750 180° South 147 169 2,700 -780 Descending FlightAware
04:48PM 40.5480 -3.5750 180° South 137 158 2,400 -780 Descending FlightAware
04:49PM 40.5310 -3.5750 180° South 136 157 2,000 -840 Descending FlightAware